Time;durP1;ratioP1;P1;durP2;ratioP2;P2;SDS_P1;SDS_P2;PMS_P1;PMS_P2;Temp;Humidity;BMP_temperature;BMP_pressure;BME280_temperature;BME280_humidity;BME280_pressure;Samples;Min_cycle;Max_cycle;Signal;HPM_P1;HPM_P2
2023/01/18 00:01:00;;;;;;;27.20;17.20;;;0.80;99.90;;;;;;5079308;28;20033;-62
2023/01/18 00:03:26;;;;;;;30.40;16.20;;;0.80;99.90;;;;;;5079214;28;20029;-62
2023/01/18 00:05:53;;;;;;;25.90;16.08;;;0.80;99.90;;;;;;5045368;28;20119;-63
2023/01/18 00:08:19;;;;;;;28.73;15.13;;;0.70;99.90;;;;;;5079041;28;20035;-63
2023/01/18 00:10:45;;;;;;;26.92;15.23;;;0.70;99.90;;;;;;5061674;28;20024;-63
2023/01/18 00:13:11;;;;;;;28.95;15.30;;;0.70;99.90;;;;;;5078973;28;20040;-63
2023/01/18 00:15:38;;;;;;;25.73;15.85;;;0.80;99.90;;;;;;5078978;28;20262;-63
2023/01/18 00:18:04;;;;;;;24.25;15.35;;;0.90;99.90;;;;;;5061528;28;20028;-63
2023/01/18 00:20:31;;;;;;;28.42;16.38;;;0.90;99.90;;;;;;5061456;28;20044;-63
2023/01/18 00:22:59;;;;;;;24.52;15.45;;;1.00;99.90;;;;;;5078909;28;20033;-63
2023/01/18 00:25:25;;;;;;;26.73;15.68;;;1.00;99.90;;;;;;5061601;28;20055;-63
2023/01/18 00:27:52;;;;;;;26.85;16.63;;;0.90;99.90;;;;;;5078732;28;20028;-63
2023/01/18 00:30:21;;;;;;;26.77;17.20;;;1.00;99.90;;;;;;5061418;28;20047;-63
2023/01/18 00:32:47;;;;;;;27.77;15.63;;;1.00;99.90;;;;;;5078558;28;20457;-63
2023/01/18 00:35:14;;;;;;;27.58;16.60;;;0.90;99.90;;;;;;5078655;28;20052;-64
2023/01/18 00:37:40;;;;;;;27.23;16.25;;;0.90;99.90;;;;;;5078579;28;20036;-63
2023/01/18 00:40:08;;;;;;;28.05;17.15;;;0.80;99.90;;;;;;5061369;28;20336;-63
2023/01/18 00:45:19;;;;;;;31.02;17.30;;;0.80;99.90;;;;;;5078524;28;20437;-63
2023/01/18 00:47:45;;;;;;;28.83;17.27;;;0.80;99.90;;;;;;5044299;28;20025;-63
2023/01/18 00:50:11;;;;;;;29.90;16.92;;;0.80;99.90;;;;;;5078332;28;20071;-63
2023/01/18 00:52:37;;;;;;;29.73;18.67;;;0.80;99.90;;;;;;5078207;28;20029;-63
2023/01/18 00:55:06;;;;;;;29.70;18.23;;;0.80;99.90;;;;;;5077681;28;20059;-63
2023/01/18 00:57:32;;;;;;;28.92;19.17;;;0.80;99.90;;;;;;5078507;28;20032;-63
2023/01/18 00:59:57;;;;;;;32.97;18.48;;;0.70;99.90;;;;;;5078175;28;20024;-63
2023/01/18 01:02:23;;;;;;;29.75;18.98;;;0.70;99.90;;;;;;5060849;28;20094;-63
2023/01/18 01:07:38;;;;;;;28.17;17.77;;;0.60;99.90;;;;;;5023658;28;20152;-63
2023/01/18 01:10:08;;;;;;;28.08;17.05;;;0.60;99.90;;;;;;5077938;28;20029;-63
2023/01/18 01:26:19;;;;;;;26.23;16.75;;;0.60;99.90;;;;;;5062928;28;20037;-63
2023/01/18 01:28:49;;;;;;;27.80;17.15;;;0.60;99.90;;;;;;5077514;28;20115;-63
2023/01/18 01:31:17;;;;;;;28.02;17.08;;;0.60;99.90;;;;;;5078086;28;20038;-63
2023/01/18 01:33:44;;;;;;;26.17;17.13;;;0.50;99.90;;;;;;5077469;28;20028;-63
2023/01/18 01:36:13;;;;;;;27.98;16.90;;;0.30;99.90;;;;;;5060337;28;20029;-63
2023/01/18 01:38:42;;;;;;;28.45;16.63;;;0.20;99.90;;;;;;5077374;28;20024;-63
2023/01/18 01:41:20;;;;;;;27.90;16.27;;;0.20;99.90;;;;;;5077561;28;20304;-63
2023/01/18 01:43:50;;;;;;;25.58;16.42;;;0.10;99.90;;;;;;5077470;28;20411;-63
2023/01/18 01:46:29;;;;;;;32.10;16.65;;;0.20;99.90;;;;;;5077572;28;20047;-62
2023/01/18 01:49:00;;;;;;;26.08;16.88;;;0.30;99.90;;;;;;5059746;28;20167;-63
2023/01/18 01:51:27;;;;;;;30.97;17.50;;;0.40;99.90;;;;;;5077038;28;20037;-63
2023/01/18 01:53:53;;;;;;;28.17;16.65;;;0.40;99.90;;;;;;5059881;28;20689;-64
2023/01/18 01:56:20;;;;;;;32.13;17.58;;;0.30;99.90;;;;;;5060401;28;20473;-63
2023/01/18 01:58:53;;;;;;;27.38;17.33;;;0.40;99.90;;;;;;5059845;28;20318;-63
2023/01/18 02:01:19;;;;;;;28.17;16.60;;;0.20;99.90;;;;;;5077698;28;20071;-62
2023/01/18 02:03:45;;;;;;;25.98;16.83;;;0.30;99.90;;;;;;5059643;28;20101;-62
2023/01/18 02:06:51;;;;;;;32.72;20.90;;;0.30;99.90;;;;;;5042390;28;20041;-63
2023/01/18 02:09:14;;;;;;;32.15;20.20;;;0.30;99.90;;;;;;5074475;28;20127;-62
2023/01/18 02:11:42;;;;;;;31.85;21.40;;;0.20;99.90;;;;;;5076919;28;20039;-63
2023/01/18 02:14:12;;;;;;;35.97;21.38;;;0.10;99.90;;;;;;5077257;28;20021;-63
2023/01/18 02:16:50;;;;;;;30.63;20.00;;;0.00;99.90;;;;;;5059873;28;20029;-62
2023/01/18 02:19:40;;;;;;;37.97;20.42;;;0.00;99.90;;;;;;5076778;28;20105;-63
2023/01/18 02:22:24;;;;;;;32.90;20.38;;;0.00;99.90;;;;;;5059410;28;20029;-63
2023/01/18 02:25:05;;;;;;;32.70;19.80;;;0.00;99.90;;;;;;5076891;28;20291;-63
2023/01/18 02:27:47;;;;;;;29.75;19.75;;;0.00;99.90;;;;;;5042704;28;20044;-63
2023/01/18 02:30:33;;;;;;;34.20;19.45;;;0.00;99.90;;;;;;5076922;28;20404;-63
2023/01/18 02:33:09;;;;;;;34.97;19.65;;;0.10;99.90;;;;;;5059412;28;20102;-64
2023/01/18 02:35:53;;;;;;;33.47;20.80;;;0.20;99.90;;;;;;5059330;28;20077;-63
2023/01/18 02:38:28;;;;;;;37.55;21.63;;;0.30;99.90;;;;;;5076646;28;20036;-63
2023/01/18 02:41:06;;;;;;;32.28;20.30;;;0.30;99.90;;;;;;5076752;28;20303;-63
2023/01/18 02:46:51;;;;;;;33.33;21.08;;;0.20;99.90;;;;;;5062110;28;20025;-62
2023/01/18 02:49:17;;;;;;;31.58;20.20;;;0.20;99.90;;;;;;5060976;28;20423;-62
2023/01/18 02:51:43;;;;;;;30.83;19.67;;;0.20;99.90;;;;;;5059796;28;20447;-61
2023/01/18 02:54:11;;;;;;;35.10;20.85;;;0.10;99.90;;;;;;5076510;28;20124;-62
2023/01/18 02:56:44;;;;;;;33.20;21.02;;;0.10;99.90;;;;;;5076450;28;20062;-62
2023/01/18 02:59:28;;;;;;;31.55;19.77;;;0.10;99.90;;;;;;5077180;28;20032;-62
2023/01/18 03:01:59;;;;;;;32.88;19.85;;;0.00;99.90;;;;;;5076508;28;20346;-61
2023/01/18 03:04:32;;;;;;;34.28;20.25;;;0.10;99.90;;;;;;5076744;28;20111;-62
2023/01/18 03:07:10;;;;;;;29.33;18.80;;;0.10;99.90;;;;;;5076990;28;20292;-62
2023/01/18 03:09:37;;;;;;;30.15;18.00;;;0.00;99.90;;;;;;5076521;28;20036;-63
2023/01/18 03:12:45;;;;;;;31.60;18.90;;;0.00;99.90;;;;;;5076214;28;20063;-64
2023/01/18 03:15:17;;;;;;;27.58;17.45;;;-0.10;99.90;;;;;;5076393;28;20025;-63
2023/01/18 03:17:50;;;;;;;36.65;19.35;;;-0.10;99.90;;;;;;5078619;28;20035;-63
2023/01/18 03:20:24;;;;;;;28.70;19.33;;;-0.20;99.90;;;;;;5062670;28;20273;-62
2023/01/18 03:25:45;;;;;;;29.05;20.02;;;-0.20;99.90;;;;;;5079998;28;20039;-63
2023/01/18 03:34:30;;;;;;;30.30;19.45;;;-0.20;99.90;;;;;;5080094;28;20020;-61
2023/01/18 03:37:01;;;;;;;31.25;18.75;;;-0.40;99.90;;;;;;5079919;28;20086;-61
2023/01/18 03:39:45;;;;;;;26.80;18.33;;;-0.40;99.90;;;;;;5079653;28;20027;-61
2023/01/18 03:42:19;;;;;;;29.52;18.52;;;-0.40;99.90;;;;;;5079610;28;20040;-62
2023/01/18 03:44:50;;;;;;;32.42;18.60;;;-0.40;99.90;;;;;;5062188;28;20442;-61
2023/01/18 03:47:16;;;;;;;28.42;18.90;;;-0.50;99.90;;;;;;5079978;28;20033;-62
2023/01/18 03:49:42;;;;;;;30.00;19.42;;;-0.50;99.90;;;;;;5045198;28;20355;-62
2023/01/18 03:52:29;;;;;;;32.53;19.95;;;-0.50;99.90;;;;;;5079442;28;20038;-62
2023/01/18 03:55:22;;;;;;;28.77;18.48;;;-0.40;99.90;;;;;;5079392;28;20330;-61
2023/01/18 03:57:56;;;;;;;29.30;17.58;;;-0.40;99.90;;;;;;5079368;28;20170;-62
2023/01/18 04:00:22;;;;;;;27.02;17.60;;;-0.40;99.90;;;;;;5061808;28;20292;-61
2023/01/18 04:02:49;;;;;;;25.98;15.75;;;-0.50;99.90;;;;;;5079253;28;20150;-61
2023/01/18 04:05:16;;;;;;;24.60;16.25;;;-0.50;99.90;;;;;;5079493;28;20277;-61
2023/01/18 04:07:42;;;;;;;26.25;15.80;;;-0.50;99.90;;;;;;5079144;28;20082;-61
2023/01/18 04:10:09;;;;;;;25.35;16.23;;;-0.60;99.90;;;;;;5079298;28;20040;-62
2023/01/18 04:12:35;;;;;;;24.05;15.70;;;-0.50;99.90;;;;;;5062214;28;20040;-62
2023/01/18 04:15:02;;;;;;;24.67;15.02;;;-0.50;99.90;;;;;;5079019;28;20277;-62
2023/01/18 04:17:28;;;;;;;27.92;15.93;;;-0.50;99.90;;;;;;5078995;28;20344;-61
2023/01/18 04:19:54;;;;;;;25.10;15.70;;;-0.40;99.90;;;;;;5045034;28;20033;-62
2023/01/18 04:22:20;;;;;;;27.70;16.13;;;-0.40;99.90;;;;;;5044814;28;20399;-61
2023/01/18 04:24:46;;;;;;;22.90;14.15;;;-0.30;99.90;;;;;;5061378;28;20024;-62
2023/01/18 04:27:12;;;;;;;24.45;15.27;;;-0.30;99.90;;;;;;5078769;28;20059;-62
2023/01/18 04:29:37;;;;;;;28.33;15.00;;;-0.20;99.90;;;;;;5077799;28;20403;-62
2023/01/18 04:32:04;;;;;;;23.52;14.70;;;-0.20;99.90;;;;;;5079100;28;20036;-62
2023/01/18 04:34:31;;;;;;;26.60;15.23;;;-0.30;99.90;;;;;;5078675;28;20304;-62
2023/01/18 04:36:57;;;;;;;22.67;15.32;;;-0.30;99.90;;;;;;5061314;28;20454;-62
2023/01/18 04:39:23;;;;;;;22.77;15.13;;;-0.30;99.90;;;;;;5061408;28;20036;-62
2023/01/18 04:41:48;;;;;;;26.48;14.43;;;-0.30;99.90;;;;;;5078532;28;20021;-62
2023/01/18 04:44:15;;;;;;;24.00;14.57;;;-0.30;99.90;;;;;;5078843;28;20035;-62
2023/01/18 04:46:41;;;;;;;25.95;14.50;;;-0.30;99.90;;;;;;5078937;28;20029;-62
2023/01/18 04:49:12;;;;;;;25.23;15.15;;;-0.30;99.90;;;;;;5078364;28;20028;-61
2023/01/18 04:51:38;;;;;;;26.10;16.98;;;-0.20;99.90;;;;;;5077784;28;20358;-62
2023/01/18 04:54:04;;;;;;;28.65;15.70;;;-0.30;99.90;;;;;;5078360;28;20400;-64
2023/01/18 04:56:30;;;;;;;25.23;14.65;;;-0.20;99.90;;;;;;5060909;28;20064;-64
2023/01/18 04:58:56;;;;;;;22.02;14.27;;;-0.20;99.90;;;;;;5060744;28;20028;-63
2023/01/18 05:01:22;;;;;;;22.40;14.57;;;-0.20;99.90;;;;;;5078619;28;20388;-63
2023/01/18 05:03:48;;;;;;;24.67;15.50;;;-0.30;99.90;;;;;;5060620;28;20396;-63
2023/01/18 05:06:15;;;;;;;23.58;15.50;;;-0.30;99.90;;;;;;5078550;28;20101;-63
2023/01/18 05:08:41;;;;;;;25.90;14.93;;;-0.30;99.90;;;;;;5060599;28;20067;-63
2023/01/18 05:11:12;;;;;;;22.00;14.25;;;-0.20;99.90;;;;;;5044145;28;20040;-64
2023/01/18 05:13:39;;;;;;;26.17;14.85;;;-0.20;99.90;;;;;;5060528;28;20078;-63
2023/01/18 05:16:06;;;;;;;19.40;13.57;;;-0.20;99.90;;;;;;5077875;28;20299;-63
2023/01/18 05:18:33;;;;;;;24.73;13.63;;;-0.30;99.90;;;;;;5077826;28;20119;-63
2023/01/18 05:20:59;;;;;;;21.65;13.07;;;-0.20;99.90;;;;;;5060415;28;20028;-64
2023/01/18 05:23:25;;;;;;;18.85;12.77;;;-0.30;99.90;;;;;;5077789;28;20149;-64
2023/01/18 05:25:55;;;;;;;22.10;13.88;;;-0.30;99.90;;;;;;5043783;28;20063;-64
2023/01/18 05:28:23;;;;;;;22.00;12.73;;;-0.30;99.90;;;;;;5077558;28;20104;-64
2023/01/18 05:30:49;;;;;;;19.27;12.93;;;-0.30;99.90;;;;;;5060077;28;20300;-64
2023/01/18 05:33:16;;;;;;;25.05;14.13;;;-0.40;99.90;;;;;;5077393;28;20040;-64
2023/01/18 05:35:53;;;;;;;21.23;13.20;;;-0.40;99.90;;;;;;5077576;28;20047;-64
2023/01/18 05:38:20;;;;;;;18.15;12.93;;;-0.40;99.90;;;;;;5060086;28;20100;-65
2023/01/18 05:40:51;;;;;;;19.95;12.75;;;-0.40;99.90;;;;;;5077223;28;20094;-65
2023/01/18 05:43:21;;;;;;;19.65;12.82;;;-0.40;99.90;;;;;;5059895;28;20277;-64
2023/01/18 05:45:48;;;;;;;19.33;12.20;;;-0.40;99.90;;;;;;5077585;28;20052;-64
2023/01/18 05:48:14;;;;;;;19.75;12.43;;;-0.50;99.90;;;;;;5077212;28;20128;-64
2023/01/18 05:50:45;;;;;;;23.15;12.95;;;-0.40;99.90;;;;;;5059901;28;20052;-64
2023/01/18 05:53:18;;;;;;;17.75;11.93;;;-0.40;99.90;;;;;;5077194;28;20124;-65
2023/01/18 05:55:56;;;;;;;26.20;13.50;;;-0.40;99.90;;;;;;5077186;28;20048;-66
2023/01/18 05:58:23;;;;;;;18.83;11.85;;;-0.40;99.90;;;;;;5077298;28;20029;-65
2023/01/18 06:00:48;;;;;;;19.13;11.90;;;-0.40;99.90;;;;;;5059563;28;20040;-65
2023/01/18 06:03:14;;;;;;;18.08;12.43;;;-0.40;99.90;;;;;;5043298;28;20033;-65
2023/01/18 06:05:40;;;;;;;17.48;11.57;;;-0.40;99.90;;;;;;5059616;28;20036;-64
2023/01/18 06:08:06;;;;;;;17.42;11.60;;;-0.50;99.90;;;;;;5076995;28;20029;-64
2023/01/18 06:10:31;;;;;;;18.48;11.80;;;-0.50;99.90;;;;;;5059432;28;20160;-65
2023/01/18 06:12:57;;;;;;;15.73;10.93;;;-0.50;99.90;;;;;;5059370;28;20028;-65
2023/01/18 06:15:23;;;;;;;16.52;11.18;;;-0.40;99.90;;;;;;5076865;28;20029;-65
2023/01/18 06:17:49;;;;;;;17.58;11.32;;;-0.40;99.90;;;;;;5076799;28;20024;-65
2023/01/18 06:20:15;;;;;;;19.55;11.20;;;-0.50;99.90;;;;;;5059472;28;20415;-65
2023/01/18 06:22:41;;;;;;;16.10;10.70;;;-0.50;99.90;;;;;;5059578;28;20039;-65
2023/01/18 06:25:08;;;;;;;15.30;10.50;;;-0.40;99.90;;;;;;5059342;28;20408;-65
2023/01/18 06:27:36;;;;;;;18.92;11.43;;;-0.40;99.90;;;;;;5042847;28;20033;-65
2023/01/18 06:30:05;;;;;;;15.77;9.80;;;-0.30;99.90;;;;;;5043568;28;20032;-63
2023/01/18 06:32:31;;;;;;;18.92;11.02;;;-0.40;99.90;;;;;;5076713;28;20032;-64
2023/01/18 06:34:57;;;;;;;18.02;11.70;;;-0.40;99.90;;;;;;5076657;28;20041;-65
2023/01/18 06:37:24;;;;;;;21.45;10.65;;;-0.40;99.90;;;;;;5076950;28;20037;-64
2023/01/18 06:39:50;;;;;;;21.23;11.02;;;-0.40;99.90;;;;;;5076567;28;20043;-64
2023/01/18 06:42:16;;;;;;;15.07;10.15;;;-0.50;99.90;;;;;;5059237;28;20111;-64
2023/01/18 06:44:42;;;;;;;17.92;10.55;;;-0.50;99.90;;;;;;5076456;28;20123;-64
2023/01/18 06:47:08;;;;;;;17.85;9.95;;;-0.50;99.90;;;;;;5076904;28;20039;-65
2023/01/18 06:49:34;;;;;;;16.30;10.27;;;-0.50;99.90;;;;;;5042227;28;20028;-65
2023/01/18 06:52:00;;;;;;;19.23;10.60;;;-0.40;99.90;;;;;;5077848;28;20040;-65
2023/01/18 06:54:26;;;;;;;15.95;10.38;;;-0.40;99.90;;;;;;5063595;28;20048;-65
2023/01/18 06:56:51;;;;;;;17.88;10.95;;;-0.40;99.90;;;;;;5080793;28;20028;-65
2023/01/18 06:59:17;;;;;;;21.80;10.50;;;-0.30;99.90;;;;;;5080381;28;20036;-64
2023/01/18 07:01:43;;;;;;;17.20;10.25;;;-0.30;99.90;;;;;;5063588;28;20028;-64
2023/01/18 07:04:09;;;;;;;18.70;10.43;;;-0.40;99.90;;;;;;5080305;28;20093;-64
2023/01/18 07:06:35;;;;;;;17.98;10.02;;;-0.30;99.90;;;;;;5063545;28;20281;-65
2023/01/18 07:09:02;;;;;;;14.30;9.60;;;-0.30;99.90;;;;;;5080113;28;20036;-64
2023/01/18 07:11:27;;;;;;;19.42;9.80;;;-0.30;99.90;;;;;;5080102;28;20061;-64
2023/01/18 07:13:53;;;;;;;19.42;10.13;;;-0.30;99.90;;;;;;5062741;28;20427;-64
2023/01/18 07:16:20;;;;;;;18.52;10.68;;;-0.30;99.90;;;;;;5080538;28;20036;-64
2023/01/18 07:18:47;;;;;;;19.85;9.70;;;-0.40;99.90;;;;;;5062574;28;20261;-66
2023/01/18 07:21:15;;;;;;;16.63;9.73;;;-0.30;99.90;;;;;;5079920;28;20024;-64
2023/01/18 07:23:41;;;;;;;18.35;10.18;;;-0.30;99.90;;;;;;5062511;28;20384;-64
2023/01/18 07:26:10;;;;;;;13.60;9.57;;;-0.30;99.90;;;;;;5079972;28;20115;-65
2023/01/18 07:28:36;;;;;;;15.18;9.77;;;-0.30;99.90;;;;;;5079892;28;20020;-65
2023/01/18 07:31:05;;;;;;;13.85;9.15;;;-0.30;99.90;;;;;;5079840;28;20063;-65
2023/01/18 07:33:30;;;;;;;16.35;9.45;;;-0.30;99.90;;;;;;5062610;28;20082;-65
2023/01/18 07:35:57;;;;;;;18.35;10.07;;;-0.30;99.90;;;;;;5079777;28;20356;-60
2023/01/18 07:38:23;;;;;;;14.63;9.80;;;-0.10;99.90;;;;;;5079660;28;20036;-60
2023/01/18 07:40:49;;;;;;;14.38;9.60;;;-0.10;99.90;;;;;;5062234;28;20408;-61
2023/01/18 07:43:16;;;;;;;15.00;8.70;;;-0.10;99.90;;;;;;5079644;28;20119;-60
2023/01/18 07:45:43;;;;;;;15.85;9.27;;;-0.20;99.90;;;;;;5062084;28;20171;-60
2023/01/18 07:48:09;;;;;;;21.23;9.43;;;-0.10;99.90;;;;;;5062242;28;20056;-60
2023/01/18 07:50:35;;;;;;;18.10;8.98;;;-0.10;99.90;;;;;;5079485;28;20339;-60
2023/01/18 07:53:07;;;;;;;14.90;8.93;;;-0.20;99.90;;;;;;5062305;28;20120;-60
2023/01/18 07:55:33;;;;;;;12.90;9.00;;;-0.20;99.90;;;;;;5079769;28;20098;-60
2023/01/18 07:58:00;;;;;;;13.40;9.52;;;-0.20;99.90;;;;;;5079226;28;20075;-60
2023/01/18 08:00:27;;;;;;;14.70;9.35;;;-0.10;99.90;;;;;;5079302;28;20032;-60
2023/01/18 08:02:54;;;;;;;15.32;9.32;;;-0.20;99.90;;;;;;5078152;28;20040;-60
2023/01/18 08:05:23;;;;;;;13.02;9.27;;;-0.10;99.90;;;;;;5061390;28;20071;-60
2023/01/18 08:07:52;;;;;;;17.15;9.18;;;-0.10;99.90;;;;;;5079165;28;20033;-60
2023/01/18 08:10:19;;;;;;;14.30;8.88;;;-0.10;99.90;;;;;;5061823;28;20060;-60
2023/01/18 08:12:45;;;;;;;17.40;9.70;;;-0.10;99.90;;;;;;5079014;28;20494;-60
2023/01/18 08:15:11;;;;;;;17.05;9.43;;;-0.10;99.90;;;;;;5079143;28;20029;-60
2023/01/18 08:17:37;;;;;;;13.20;9.38;;;0.00;99.90;;;;;;5078805;28;20029;-60
2023/01/18 08:20:04;;;;;;;16.80;9.32;;;0.00;99.90;;;;;;5045091;28;20053;-60
2023/01/18 08:22:31;;;;;;;17.35;9.60;;;0.00;99.90;;;;;;5061681;28;20040;-60
2023/01/18 08:24:57;;;;;;;15.27;9.65;;;-0.10;99.90;;;;;;5078847;28;20068;-60
2023/01/18 08:27:23;;;;;;;18.42;10.05;;;0.00;99.90;;;;;;5078847;28;20391;-60
2023/01/18 08:29:48;;;;;;;15.57;10.50;;;0.00;99.90;;;;;;5078820;28;20029;-60
2023/01/18 08:32:15;;;;;;;15.93;9.52;;;0.00;99.90;;;;;;5078652;28;20033;-60
2023/01/18 08:34:40;;;;;;;16.35;10.38;;;0.00;99.90;;;;;;5078691;28;20388;-60
2023/01/18 08:37:06;;;;;;;14.60;10.55;;;0.00;99.90;;;;;;5078564;28;20295;-60
2023/01/18 08:39:32;;;;;;;15.00;10.68;;;0.00;99.90;;;;;;5078440;28;20033;-60
2023/01/18 08:41:58;;;;;;;17.27;10.82;;;0.00;99.90;;;;;;5078495;28;20040;-60
2023/01/18 08:44:24;;;;;;;15.68;10.23;;;0.00;99.90;;;;;;5061441;28;20362;-60
2023/01/18 08:46:49;;;;;;;15.50;10.18;;;0.00;99.90;;;;;;5078411;28;20112;-60
2023/01/18 08:49:15;;;;;;;15.70;10.65;;;0.00;99.90;;;;;;5078169;28;20042;-60
2023/01/18 08:51:41;;;;;;;17.95;10.73;;;0.10;99.90;;;;;;5060786;28;20036;-60
2023/01/18 08:54:07;;;;;;;15.20;10.65;;;0.10;99.90;;;;;;5078246;28;20033;-60
2023/01/18 08:56:33;;;;;;;16.10;10.77;;;0.10;99.90;;;;;;5044240;28;20438;-60
2023/01/18 08:58:59;;;;;;;17.70;10.82;;;0.20;99.90;;;;;;5078160;28;20033;-60
2023/01/18 09:01:25;;;;;;;18.85;11.23;;;0.20;99.90;;;;;;5078112;28;20278;-60
2023/01/18 09:03:56;;;;;;;19.35;11.15;;;0.30;99.90;;;;;;5077950;28;20044;-60
2023/01/18 09:06:22;;;;;;;14.77;10.95;;;0.40;99.90;;;;;;5061013;28;20036;-60
2023/01/18 09:08:49;;;;;;;16.25;10.35;;;0.40;99.90;;;;;;5077905;28;20135;-60
2023/01/18 09:11:16;;;;;;;18.88;10.65;;;0.40;99.90;;;;;;5078277;28;20032;-60
2023/01/18 09:13:42;;;;;;;15.07;10.18;;;0.40;99.90;;;;;;5060254;28;20060;-60
2023/01/18 09:16:09;;;;;;;16.10;9.93;;;0.50;99.90;;;;;;5077048;28;20039;-60
2023/01/18 09:18:37;;;;;;;17.92;9.90;;;0.50;99.90;;;;;;5077672;28;20032;-60
2023/01/18 09:21:07;;;;;;;16.30;9.55;;;0.50;99.90;;;;;;5077513;28;20028;-60
2023/01/18 09:23:34;;;;;;;16.50;10.35;;;0.60;99.90;;;;;;5060160;28;20036;-60
2023/01/18 09:26:19;;;;;;;13.95;9.80;;;0.70;99.90;;;;;;5077571;28;20025;-60
2023/01/18 09:28:51;;;;;;;13.88;9.25;;;0.70;99.90;;;;;;5077549;28;20021;-60
2023/01/18 09:31:18;;;;;;;16.27;9.90;;;0.80;99.90;;;;;;5077951;28;20028;-60
2023/01/18 09:33:44;;;;;;;15.85;9.63;;;0.90;99.90;;;;;;5077335;28;20096;-60
2023/01/18 09:36:12;;;;;;;21.42;10.07;;;1.00;99.90;;;;;;5078047;28;20060;-60
2023/01/18 09:38:39;;;;;;;14.15;9.68;;;1.10;99.90;;;;;;5077346;28;20054;-60
2023/01/18 09:41:26;;;;;;;13.60;8.60;;;1.10;99.90;;;;;;5077407;28;20058;-60
2023/01/18 09:43:57;;;;;;;14.90;9.13;;;1.20;99.90;;;;;;5077439;28;20115;-60
2023/01/18 09:46:24;;;;;;;15.95;9.27;;;1.20;99.90;;;;;;5077673;28;20127;-60
2023/01/18 09:48:56;;;;;;;13.07;8.55;;;1.30;99.90;;;;;;5060180;28;20040;-60
2023/01/18 09:51:24;;;;;;;;;;;1.40;99.90;;;;;;5077536;28;20102;-60
2023/01/18 09:54:03;;;;;;;13.57;8.25;;;1.60;99.90;;;;;;5077229;28;19919;-60
2023/01/18 09:56:50;;;;;;;12.80;8.55;;;1.60;99.90;;;;;;5077184;28;20082;-61
2023/01/18 09:59:29;;;;;;;13.02;7.53;;;1.70;99.90;;;;;;5059771;28;20333;-58
2023/01/18 10:01:55;;;;;;;9.70;7.40;;;1.80;99.90;;;;;;5077661;28;20288;-61
2023/01/18 10:04:38;;;;;;;10.05;7.43;;;2.00;99.90;;;;;;5042934;28;20040;-63
2023/01/18 10:07:15;;;;;;;9.40;6.80;;;2.30;99.90;;;;;;5077061;28;20166;-59
2023/01/18 10:09:51;;;;;;;7.80;5.32;;;2.60;99.90;;;;;;5059967;28;20024;-59
2023/01/18 10:12:44;;;;;;;9.55;5.78;;;2.80;99.90;;;;;;5076908;28;20035;-58
2023/01/18 10:15:22;;;;;;;10.07;6.00;;;3.00;99.90;;;;;;5059458;28;20440;-59
2023/01/18 10:17:52;;;;;;;7.68;5.40;;;3.30;99.90;;;;;;5076936;28;20024;-59
2023/01/18 10:20:39;;;;;;;7.95;5.53;;;3.40;99.90;;;;;;5076857;28;20024;-59
2023/01/18 10:23:18;;;;;;;9.73;5.40;;;3.90;99.90;;;;;;5076720;28;20033;-59
2023/01/18 10:25:51;;;;;;;9.88;5.60;;;3.70;99.90;;;;;;5076448;28;20346;-59
2023/01/18 10:28:34;;;;;;;9.73;5.03;;;4.20;99.90;;;;;;5076266;28;20051;-59
2023/01/18 10:31:14;;;;;;;10.15;5.40;;;4.60;99.90;;;;;;5076775;28;20277;-60
2023/01/18 10:33:42;;;;;;;9.80;5.43;;;4.80;99.90;;;;;;5076691;28;20031;-59
2023/01/18 10:36:22;;;;;;;9.55;5.53;;;4.70;99.90;;;;;;5076769;28;20025;-59
2023/01/18 10:38:50;;;;;;;8.73;5.55;;;4.70;99.90;;;;;;5076404;28;20028;-59
2023/01/18 10:41:27;;;;;;;10.35;5.75;;;4.90;99.90;;;;;;5076521;28;20032;-59
2023/01/18 10:43:54;;;;;;;9.73;5.78;;;4.30;99.90;;;;;;5059293;28;20036;-60
2023/01/18 10:46:20;;;;;;;8.35;5.40;;;4.60;99.90;;;;;;5059266;28;20317;-59
2023/01/18 10:48:53;;;;;;;9.02;5.03;;;4.90;99.90;;;;;;5076451;28;20345;-59
2023/01/18 10:51:37;;;;;;;8.15;5.55;;;4.80;99.90;;;;;;5058831;28;20051;-59
2023/01/18 10:54:32;;;;;;;7.50;5.50;;;4.60;99.90;;;;;;5059005;28;20078;-59
2023/01/18 10:57:03;;;;;;;8.68;5.57;;;4.90;99.90;;;;;;5050590;28;20307;-58
2023/01/18 10:59:41;;;;;;;9.25;5.18;;;4.90;99.90;;;;;;5076446;28;20075;-58
2023/01/18 11:02:22;;;;;;;10.70;5.75;;;5.10;99.90;;;;;;5076877;28;20296;-59
2023/01/18 11:04:56;;;;;;;9.18;5.40;;;5.40;99.90;;;;;;5076459;28;20039;-58
2023/01/18 11:07:29;;;;;;;8.82;5.30;;;5.20;99.90;;;;;;5076284;28;20461;-59
2023/01/18 11:10:00;;;;;;;10.27;5.10;;;5.80;99.90;;;;;;5076266;28;20035;-59
2023/01/18 11:12:46;;;;;;;10.18;4.95;;;6.30;99.90;;;;;;5076246;28;20028;-59
2023/01/18 11:15:12;;;;;;;13.30;5.60;;;6.30;99.90;;;;;;5076539;28;20028;-59
2023/01/18 11:17:45;;;;;;;7.13;5.05;;;6.30;99.90;;;;;;5076297;28;20078;-59
2023/01/18 11:20:20;;;;;;;7.10;4.97;;;6.30;99.90;;;;;;5076424;28;20104;-60
2023/01/18 11:23:04;;;;;;;6.70;4.63;;;6.30;99.90;;;;;;5076577;28;20028;-60
2023/01/18 11:25:41;;;;;;;8.93;5.68;;;6.30;99.90;;;;;;5076364;28;20327;-58
2023/01/18 11:28:18;;;;;;;7.07;5.30;;;6.50;99.90;;;;;;5076290;28;20036;-58
2023/01/18 11:31:18;;;;;;;9.02;5.30;;;6.40;99.90;;;;;;5076306;28;20036;-59
2023/01/18 11:33:50;;;;;;;9.63;4.90;;;6.10;99.90;;;;;;5072660;28;20132;-59
2023/01/18 11:36:18;;;;;;;8.82;4.88;;;6.20;99.90;;;;;;5076597;28;20099;-58
2023/01/18 11:38:45;;;;;;;9.30;5.15;;;5.90;99.90;;;;;;5078573;28;20033;-59
2023/01/18 11:41:22;;;;;;;7.38;4.40;;;5.90;99.90;;;;;;5080251;28;20321;-59
2023/01/18 11:44:00;;;;;;;8.00;5.10;;;5.80;99.90;;;;;;5079449;28;20400;-59
2023/01/18 11:46:42;;;;;;;7.88;5.05;;;5.80;99.90;;;;;;5079520;28;20388;-58
2023/01/18 11:49:26;;;;;;;8.18;4.88;;;6.00;99.90;;;;;;5080018;28;20119;-60
2023/01/18 11:52:11;;;;;;;9.50;5.43;;;5.50;99.90;;;;;;5062120;28;20044;-58
2023/01/18 11:54:59;;;;;;;6.85;4.18;;;5.40;99.90;;;;;;5079779;28;20288;-58
2023/01/18 11:57:26;;;;;;;7.10;4.28;;;5.50;99.90;;;;;;5079375;28;20025;-58
2023/01/18 11:59:53;;;;;;;6.75;4.95;;;5.60;99.90;;;;;;5079364;28;20131;-59
2023/01/18 12:03:03;;;;;;;9.68;4.65;;;5.70;99.90;;;;;;5079314;28;20032;-60
2023/01/18 12:05:39;;;;;;;7.32;4.53;;;5.70;99.90;;;;;;5046101;28;20036;-61
2023/01/18 12:08:12;;;;;;;8.23;4.50;;;5.60;99.90;;;;;;5079363;28;20067;-61
2023/01/18 12:10:56;;;;;;;7.88;4.55;;;5.70;99.90;;;;;;5045448;28;20418;-60
2023/01/18 12:13:34;;;;;;;7.78;4.35;;;5.70;99.90;;;;;;5061538;28;20190;-61
2023/01/18 12:16:40;;;;;;;5.88;4.00;;;6.00;99.90;;;;;;5079078;28;20104;-58
2023/01/18 12:19:26;;;;;;;5.63;3.95;;;5.90;99.90;;;;;;5048256;28;20043;-58
2023/01/18 12:22:00;;;;;;;7.45;3.63;;;5.70;99.90;;;;;;5078996;28;20036;-59
2023/01/18 12:24:35;;;;;;;8.20;3.88;;;5.70;99.90;;;;;;5061278;28;20036;-59
2023/01/18 12:27:31;;;;;;;6.55;3.92;;;5.70;99.90;;;;;;5078679;28;20029;-59
2023/01/18 12:30:08;;;;;;;7.65;4.00;;;5.90;99.90;;;;;;5052477;28;20047;-58
2023/01/18 12:33:05;;;;;;;7.20;4.38;;;5.90;99.90;;;;;;5078659;28;20178;-59
2023/01/18 12:35:48;;;;;;;7.32;3.97;;;5.80;99.90;;;;;;5078557;28;20029;-58
2023/01/18 12:38:24;;;;;;;8.85;4.03;;;5.80;99.90;;;;;;5078791;28;20044;-59
2023/01/18 12:41:24;;;;;;;6.80;4.05;;;5.70;99.90;;;;;;5078477;28;20035;-58
2023/01/18 12:44:01;;;;;;;4.80;4.20;;;5.80;99.90;;;;;;5078753;28;20035;-58
2023/01/18 12:46:35;;;;;;;9.75;4.20;;;6.00;99.90;;;;;;5078997;28;20033;-57
2023/01/18 12:49:20;;;;;;;4.70;3.50;;;6.20;99.90;;;;;;5077909;28;20387;-58
2023/01/18 12:51:54;;;;;;;5.90;3.42;;;6.30;99.90;;;;;;5078765;28;20040;-58
2023/01/18 12:54:34;;;;;;;7.47;3.72;;;6.20;99.90;;;;;;5078741;28;20021;-59
2023/01/18 12:57:02;;;;;;;8.38;4.45;;;6.10;99.90;;;;;;5060775;28;20029;-58
2023/01/18 12:59:39;;;;;;;6.75;4.30;;;6.00;99.90;;;;;;5077813;28;20036;-58
2023/01/18 13:02:33;;;;;;;5.50;3.70;;;6.10;99.90;;;;;;5077994;28;20063;-58
2023/01/18 13:05:19;;;;;;;5.47;2.90;;;6.10;99.90;;;;;;5077976;28;20032;-58
2023/01/18 13:07:55;;;;;;;6.72;3.25;;;6.20;99.90;;;;;;5044287;28;20025;-58
2023/01/18 13:10:26;;;;;;;4.30;2.83;;;6.50;99.90;;;;;;5077857;28;20422;-57
2023/01/18 13:12:54;;;;;;;4.03;2.50;;;6.30;99.90;;;;;;5077780;28;20128;-58
2023/01/18 13:15:42;;;;;;;7.50;2.30;;;6.10;99.90;;;;;;5077707;28;20025;-58
2023/01/18 13:18:24;;;;;;;6.70;2.47;;;6.10;99.90;;;;;;5077867;28;20035;-58
2023/01/18 13:21:31;;;;;;;6.30;2.38;;;6.10;99.90;;;;;;5077920;28;20040;-58
2023/01/18 13:24:25;;;;;;;6.75;2.83;;;6.10;99.90;;;;;;5077272;28;20068;-60
2023/01/18 13:26:52;;;;;;;4.28;2.78;;;6.30;99.90;;;;;;5060357;28;20029;-58
2023/01/18 13:29:29;;;;;;;7.10;2.42;;;6.20;99.90;;;;;;5077653;28;20032;-58
2023/01/18 13:31:56;;;;;;;5.20;2.30;;;6.00;99.90;;;;;;5078024;28;20040;-59
2023/01/18 13:34:32;;;;;;;5.60;2.80;;;5.90;99.90;;;;;;5078036;28;20396;-59